sensor_id;sensor_type;location;lat;lon;timestamp;P1;durP1;ratioP1;P2;durP2;ratioP2
813;SDS011;389;48.710;9.392;2024-03-02T00:00:18;31.33;;;18.10;;
813;SDS011;389;48.710;9.392;2024-03-02T00:02:46;33.43;;;18.70;;
813;SDS011;389;48.710;9.392;2024-03-02T00:05:18;28.60;;;15.93;;
813;SDS011;389;48.710;9.392;2024-03-02T00:07:46;31.10;;;18.57;;
813;SDS011;389;48.710;9.392;2024-03-02T00:10:21;28.67;;;16.40;;
813;SDS011;389;48.710;9.392;2024-03-02T00:12:56;27.70;;;13.87;;
813;SDS011;389;48.710;9.392;2024-03-02T00:17:54;24.67;;;14.13;;
813;SDS011;389;48.710;9.392;2024-03-02T00:20:21;24.40;;;14.13;;
813;SDS011;389;48.710;9.392;2024-03-02T00:22:48;29.53;;;15.50;;
813;SDS011;389;48.710;9.392;2024-03-02T00:25:18;23.00;;;14.17;;
813;SDS011;389;48.710;9.392;2024-03-02T00:27:47;30.07;;;15.27;;
813;SDS011;389;48.710;9.392;2024-03-02T00:33:00;26.07;;;14.70;;
813;SDS011;389;48.710;9.392;2024-03-02T00:35:25;30.43;;;15.50;;
813;SDS011;389;48.710;9.392;2024-03-02T00:37:51;33.77;;;17.03;;
813;SDS011;389;48.710;9.392;2024-03-02T00:40:17;25.37;;;15.23;;
813;SDS011;389;48.710;9.392;2024-03-02T00:42:44;24.77;;;14.97;;
813;SDS011;389;48.710;9.392;2024-03-02T00:45:09;29.93;;;15.20;;
813;SDS011;389;48.710;9.392;2024-03-02T00:47:38;25.53;;;14.43;;
813;SDS011;389;48.710;9.392;2024-03-02T00:50:05;26.07;;;14.60;;
813;SDS011;389;48.710;9.392;2024-03-02T00:52:32;28.93;;;16.07;;
813;SDS011;389;48.710;9.392;2024-03-02T00:54:58;24.30;;;14.00;;
813;SDS011;389;48.710;9.392;2024-03-02T00:57:27;26.40;;;14.83;;
813;SDS011;389;48.710;9.392;2024-03-02T00:59:57;24.17;;;13.00;;
813;SDS011;389;48.710;9.392;2024-03-02T01:02:22;22.57;;;14.20;;
813;SDS011;389;48.710;9.392;2024-03-02T01:04:48;26.50;;;13.80;;
813;SDS011;389;48.710;9.392;2024-03-02T01:07:14;27.17;;;13.50;;
813;SDS011;389;48.710;9.392;2024-03-02T01:09:40;24.23;;;13.20;;
813;SDS011;389;48.710;9.392;2024-03-02T01:12:06;22.87;;;12.50;;
813;SDS011;389;48.710;9.392;2024-03-02T01:14:38;28.67;;;13.73;;
813;SDS011;389;48.710;9.392;2024-03-02T01:17:04;20.40;;;13.23;;
813;SDS011;389;48.710;9.392;2024-03-02T01:19:30;28.40;;;13.67;;
813;SDS011;389;48.710;9.392;2024-03-02T01:21:56;23.33;;;14.13;;
813;SDS011;389;48.710;9.392;2024-03-02T01:24:21;25.27;;;13.60;;
813;SDS011;389;48.710;9.392;2024-03-02T01:26:48;24.63;;;13.30;;
813;SDS011;389;48.710;9.392;2024-03-02T01:29:14;24.53;;;13.23;;
813;SDS011;389;48.710;9.392;2024-03-02T01:31:40;24.60;;;13.80;;
813;SDS011;389;48.710;9.392;2024-03-02T01:34:07;21.90;;;13.73;;
813;SDS011;389;48.710;9.392;2024-03-02T01:36:33;28.47;;;15.40;;
813;SDS011;389;48.710;9.392;2024-03-02T01:39:02;25.20;;;13.93;;
813;SDS011;389;48.710;9.392;2024-03-02T01:41:28;28.70;;;14.30;;
813;SDS011;389;48.710;9.392;2024-03-02T01:43:54;27.00;;;14.70;;
813;SDS011;389;48.710;9.392;2024-03-02T01:46:20;24.13;;;14.03;;
813;SDS011;389;48.710;9.392;2024-03-02T01:48:46;26.73;;;14.00;;
813;SDS011;389;48.710;9.392;2024-03-02T01:51:12;21.67;;;13.03;;
813;SDS011;389;48.710;9.392;2024-03-02T01:53:38;25.50;;;12.60;;
813;SDS011;389;48.710;9.392;2024-03-02T01:56:04;28.40;;;13.83;;
813;SDS011;389;48.710;9.392;2024-03-02T01:58:30;27.30;;;14.10;;
813;SDS011;389;48.710;9.392;2024-03-02T02:00:56;25.93;;;13.57;;
813;SDS011;389;48.710;9.392;2024-03-02T02:03:22;24.67;;;13.90;;
813;SDS011;389;48.710;9.392;2024-03-02T02:05:48;26.40;;;14.87;;
813;SDS011;389;48.710;9.392;2024-03-02T02:08:13;26.07;;;14.10;;
813;SDS011;389;48.710;9.392;2024-03-02T02:10:39;26.77;;;13.93;;
813;SDS011;389;48.710;9.392;2024-03-02T02:13:10;26.63;;;14.17;;
813;SDS011;389;48.710;9.392;2024-03-02T02:15:36;22.77;;;14.60;;
813;SDS011;389;48.710;9.392;2024-03-02T02:18:02;28.17;;;15.70;;
813;SDS011;389;48.710;9.392;2024-03-02T02:20:29;23.27;;;13.77;;
813;SDS011;389;48.710;9.392;2024-03-02T02:25:23;30.40;;;16.63;;
813;SDS011;389;48.710;9.392;2024-03-02T02:27:49;29.23;;;15.33;;
813;SDS011;389;48.710;9.392;2024-03-02T02:30:19;27.40;;;15.73;;
813;SDS011;389;48.710;9.392;2024-03-02T02:32:49;26.47;;;15.20;;
813;SDS011;389;48.710;9.392;2024-03-02T02:35:15;27.83;;;16.33;;
813;SDS011;389;48.710;9.392;2024-03-02T02:37:43;30.50;;;15.37;;
813;SDS011;389;48.710;9.392;2024-03-02T02:40:10;28.70;;;15.60;;
813;SDS011;389;48.710;9.392;2024-03-02T02:42:38;23.27;;;13.53;;
813;SDS011;389;48.710;9.392;2024-03-02T02:45:07;24.27;;;14.00;;
813;SDS011;389;48.710;9.392;2024-03-02T02:47:33;32.77;;;16.30;;
813;SDS011;389;48.710;9.392;2024-03-02T02:50:00;25.87;;;14.70;;
813;SDS011;389;48.710;9.392;2024-03-02T02:52:31;28.30;;;16.10;;
813;SDS011;389;48.710;9.392;2024-03-02T02:55:08;29.63;;;14.50;;
813;SDS011;389;48.710;9.392;2024-03-02T02:57:38;28.77;;;15.90;;
813;SDS011;389;48.710;9.392;2024-03-02T03:00:08;28.47;;;14.20;;
813;SDS011;389;48.710;9.392;2024-03-02T03:02:45;22.07;;;13.40;;
813;SDS011;389;48.710;9.392;2024-03-02T03:05:13;26.03;;;14.90;;
813;SDS011;389;48.710;9.392;2024-03-02T03:07:46;28.93;;;14.47;;
813;SDS011;389;48.710;9.392;2024-03-02T03:10:18;30.00;;;13.13;;
813;SDS011;389;48.710;9.392;2024-03-02T03:12:46;26.57;;;13.57;;
813;SDS011;389;48.710;9.392;2024-03-02T03:15:14;22.63;;;12.60;;
813;SDS011;389;48.710;9.392;2024-03-02T03:17:43;25.83;;;13.10;;
813;SDS011;389;48.710;9.392;2024-03-02T03:20:15;24.13;;;13.17;;
813;SDS011;389;48.710;9.392;2024-03-02T03:22:41;23.23;;;12.70;;
813;SDS011;389;48.710;9.392;2024-03-02T03:25:12;24.30;;;12.67;;
813;SDS011;389;48.710;9.392;2024-03-02T03:27:38;22.50;;;12.27;;
813;SDS011;389;48.710;9.392;2024-03-02T03:30:06;28.60;;;13.63;;
813;SDS011;389;48.710;9.392;2024-03-02T03:32:32;25.90;;;12.67;;
813;SDS011;389;48.710;9.392;2024-03-02T03:35:00;25.60;;;12.77;;
813;SDS011;389;48.710;9.392;2024-03-02T03:37:25;24.00;;;12.73;;
813;SDS011;389;48.710;9.392;2024-03-02T03:39:57;25.03;;;12.57;;
813;SDS011;389;48.710;9.392;2024-03-02T03:42:29;27.87;;;14.10;;
813;SDS011;389;48.710;9.392;2024-03-02T03:44:57;32.57;;;15.70;;
813;SDS011;389;48.710;9.392;2024-03-02T03:47:22;22.70;;;13.50;;
813;SDS011;389;48.710;9.392;2024-03-02T03:49:59;26.37;;;13.00;;
813;SDS011;389;48.710;9.392;2024-03-02T03:52:24;24.67;;;13.43;;
813;SDS011;389;48.710;9.392;2024-03-02T03:54:50;24.93;;;12.40;;
813;SDS011;389;48.710;9.392;2024-03-02T03:57:16;23.90;;;12.63;;
813;SDS011;389;48.710;9.392;2024-03-02T03:59:42;24.07;;;12.87;;
813;SDS011;389;48.710;9.392;2024-03-02T04:02:08;28.13;;;13.50;;
813;SDS011;389;48.710;9.392;2024-03-02T04:04:34;28.10;;;14.13;;
813;SDS011;389;48.710;9.392;2024-03-02T04:07:00;25.70;;;13.53;;
813;SDS011;389;48.710;9.392;2024-03-02T04:09:26;26.60;;;12.73;;
813;SDS011;389;48.710;9.392;2024-03-02T04:11:52;28.07;;;14.07;;
813;SDS011;389;48.710;9.392;2024-03-02T04:14:18;27.20;;;14.07;;
813;SDS011;389;48.710;9.392;2024-03-02T04:16:44;25.47;;;12.63;;
813;SDS011;389;48.710;9.392;2024-03-02T04:19:09;27.30;;;12.37;;
813;SDS011;389;48.710;9.392;2024-03-02T04:21:35;28.70;;;12.90;;
813;SDS011;389;48.710;9.392;2024-03-02T04:24:01;26.40;;;13.67;;
813;SDS011;389;48.710;9.392;2024-03-02T04:26:26;29.23;;;14.33;;
813;SDS011;389;48.710;9.392;2024-03-02T04:28:52;30.13;;;14.57;;
813;SDS011;389;48.710;9.392;2024-03-02T04:31:19;28.63;;;13.10;;
813;SDS011;389;48.710;9.392;2024-03-02T04:33:44;21.47;;;12.23;;
813;SDS011;389;48.710;9.392;2024-03-02T04:36:10;27.73;;;13.37;;
813;SDS011;389;48.710;9.392;2024-03-02T04:38:36;24.43;;;13.10;;
813;SDS011;389;48.710;9.392;2024-03-02T04:41:03;32.87;;;13.77;;
813;SDS011;389;48.710;9.392;2024-03-02T04:43:31;24.83;;;12.90;;
813;SDS011;389;48.710;9.392;2024-03-02T04:45:57;31.37;;;13.00;;
813;SDS011;389;48.710;9.392;2024-03-02T04:48:23;25.07;;;13.13;;
813;SDS011;389;48.710;9.392;2024-03-02T04:50:49;33.00;;;14.53;;
813;SDS011;389;48.710;9.392;2024-03-02T04:53:14;35.20;;;16.30;;
813;SDS011;389;48.710;9.392;2024-03-02T04:55:40;34.03;;;14.20;;
813;SDS011;389;48.710;9.392;2024-03-02T04:58:05;30.43;;;14.90;;
813;SDS011;389;48.710;9.392;2024-03-02T05:00:31;25.23;;;13.13;;
813;SDS011;389;48.710;9.392;2024-03-02T05:03:00;29.00;;;14.27;;
813;SDS011;389;48.710;9.392;2024-03-02T05:05:26;29.77;;;15.00;;
813;SDS011;389;48.710;9.392;2024-03-02T05:07:51;30.20;;;15.13;;
813;SDS011;389;48.710;9.392;2024-03-02T05:10:17;25.17;;;13.70;;
813;SDS011;389;48.710;9.392;2024-03-02T05:12:46;25.13;;;12.13;;
813;SDS011;389;48.710;9.392;2024-03-02T05:15:12;22.40;;;12.17;;
813;SDS011;389;48.710;9.392;2024-03-02T05:17:39;22.67;;;11.93;;
813;SDS011;389;48.710;9.392;2024-03-02T05:20:11;21.60;;;12.73;;
813;SDS011;389;48.710;9.392;2024-03-02T05:22:39;22.77;;;12.00;;
813;SDS011;389;48.710;9.392;2024-03-02T05:25:05;23.20;;;12.30;;
813;SDS011;389;48.710;9.392;2024-03-02T05:27:31;26.60;;;13.17;;
813;SDS011;389;48.710;9.392;2024-03-02T05:29:59;24.97;;;13.00;;
813;SDS011;389;48.710;9.392;2024-03-02T05:32:25;21.93;;;11.80;;
813;SDS011;389;48.710;9.392;2024-03-02T05:34:54;24.93;;;12.57;;
813;SDS011;389;48.710;9.392;2024-03-02T05:37:20;25.90;;;14.03;;
813;SDS011;389;48.710;9.392;2024-03-02T05:39:48;22.70;;;12.50;;
813;SDS011;389;48.710;9.392;2024-03-02T05:42:14;30.23;;;13.57;;
813;SDS011;389;48.710;9.392;2024-03-02T05:44:41;28.67;;;14.27;;
813;SDS011;389;48.710;9.392;2024-03-02T05:47:07;25.53;;;13.30;;
813;SDS011;389;48.710;9.392;2024-03-02T05:49:35;27.20;;;14.13;;
813;SDS011;389;48.710;9.392;2024-03-02T05:52:01;31.47;;;15.13;;
813;SDS011;389;48.710;9.392;2024-03-02T05:54:29;26.63;;;13.30;;
813;SDS011;389;48.710;9.392;2024-03-02T05:56:55;26.90;;;13.90;;
813;SDS011;389;48.710;9.392;2024-03-02T05:59:21;27.80;;;13.90;;
813;SDS011;389;48.710;9.392;2024-03-02T06:01:46;27.07;;;13.40;;
813;SDS011;389;48.710;9.392;2024-03-02T06:11:27;25.13;;;12.60;;
813;SDS011;389;48.710;9.392;2024-03-02T06:17:08;27.83;;;13.10;;
813;SDS011;389;48.710;9.392;2024-03-02T06:19:33;33.93;;;13.30;;
813;SDS011;389;48.710;9.392;2024-03-02T06:21:59;25.57;;;12.97;;
813;SDS011;389;48.710;9.392;2024-03-02T06:24:25;27.33;;;13.30;;
813;SDS011;389;48.710;9.392;2024-03-02T06:30:12;24.63;;;13.30;;
813;SDS011;389;48.710;9.392;2024-03-02T06:32:59;25.37;;;12.30;;
813;SDS011;389;48.710;9.392;2024-03-02T06:45:33;26.13;;;12.50;;
813;SDS011;389;48.710;9.392;2024-03-02T06:48:10;32.17;;;13.43;;
813;SDS011;389;48.710;9.392;2024-03-02T07:04:43;31.93;;;15.03;;
813;SDS011;389;48.710;9.392;2024-03-02T07:14:16;27.13;;;15.13;;
813;SDS011;389;48.710;9.392;2024-03-02T07:28:44;37.17;;;20.30;;
813;SDS011;389;48.710;9.392;2024-03-02T07:57:44;37.37;;;18.07;;
813;SDS011;389;48.710;9.392;2024-03-02T08:00:10;32.43;;;17.47;;
813;SDS011;389;48.710;9.392;2024-03-02T08:02:35;36.60;;;17.93;;
813;SDS011;389;48.710;9.392;2024-03-02T08:05:01;32.93;;;17.87;;
813;SDS011;389;48.710;9.392;2024-03-02T08:07:27;28.40;;;17.30;;
813;SDS011;389;48.710;9.392;2024-03-02T08:09:52;32.47;;;16.60;;
813;SDS011;389;48.710;9.392;2024-03-02T08:12:18;28.70;;;16.77;;
813;SDS011;389;48.710;9.392;2024-03-02T08:14:44;33.03;;;17.70;;
813;SDS011;389;48.710;9.392;2024-03-02T08:17:10;30.90;;;16.87;;
813;SDS011;389;48.710;9.392;2024-03-02T08:19:36;26.00;;;15.83;;
813;SDS011;389;48.710;9.392;2024-03-02T08:22:02;28.93;;;16.50;;
813;SDS011;389;48.710;9.392;2024-03-02T08:24:28;29.07;;;16.33;;
813;SDS011;389;48.710;9.392;2024-03-02T08:26:54;28.17;;;16.20;;
813;SDS011;389;48.710;9.392;2024-03-02T08:29:19;25.63;;;16.47;;
813;SDS011;389;48.710;9.392;2024-03-02T08:31:46;27.97;;;16.03;;
813;SDS011;389;48.710;9.392;2024-03-02T08:34:12;26.23;;;16.37;;
813;SDS011;389;48.710;9.392;2024-03-02T08:36:37;32.60;;;16.57;;
813;SDS011;389;48.710;9.392;2024-03-02T08:39:03;27.33;;;16.10;;
813;SDS011;389;48.710;9.392;2024-03-02T08:41:32;26.40;;;15.97;;
813;SDS011;389;48.710;9.392;2024-03-02T08:43:58;36.00;;;22.53;;
813;SDS011;389;48.710;9.392;2024-03-02T08:46:23;40.17;;;25.67;;
813;SDS011;389;48.710;9.392;2024-03-02T08:58:46;18.10;;;11.37;;
813;SDS011;389;48.710;9.392;2024-03-02T09:01:33;19.00;;;11.80;;
813;SDS011;389;48.710;9.392;2024-03-02T09:04:07;20.27;;;11.63;;
813;SDS011;389;48.710;9.392;2024-03-02T09:06:48;18.33;;;11.00;;
813;SDS011;389;48.710;9.392;2024-03-02T09:12:43;15.47;;;9.77;;
813;SDS011;389;48.710;9.392;2024-03-02T09:15:12;13.43;;;8.87;;
813;SDS011;389;48.710;9.392;2024-03-02T09:17:37;12.70;;;8.43;;
813;SDS011;389;48.710;9.392;2024-03-02T09:20:03;17.83;;;8.60;;
813;SDS011;389;48.710;9.392;2024-03-02T09:22:29;13.63;;;9.00;;
813;SDS011;389;48.710;9.392;2024-03-02T09:24:55;14.93;;;9.03;;
813;SDS011;389;48.710;9.392;2024-03-02T09:27:21;10.80;;;7.87;;
813;SDS011;389;48.710;9.392;2024-03-02T09:29:47;12.30;;;8.83;;
813;SDS011;389;48.710;9.392;2024-03-02T09:32:13;13.77;;;8.80;;
813;SDS011;389;48.710;9.392;2024-03-02T09:34:39;11.70;;;8.00;;
813;SDS011;389;48.710;9.392;2024-03-02T09:37:05;9.23;;;7.63;;
813;SDS011;389;48.710;9.392;2024-03-02T09:39:31;9.23;;;6.87;;
813;SDS011;389;48.710;9.392;2024-03-02T09:41:57;9.57;;;6.60;;
813;SDS011;389;48.710;9.392;2024-03-02T09:44:24;8.40;;;6.13;;
813;SDS011;389;48.710;9.392;2024-03-02T09:46:51;9.23;;;6.03;;
813;SDS011;389;48.710;9.392;2024-03-02T09:49:26;6.87;;;5.47;;
813;SDS011;389;48.710;9.392;2024-03-02T09:52:12;7.60;;;5.83;;
813;SDS011;389;48.710;9.392;2024-03-02T09:54:39;9.13;;;6.23;;
813;SDS011;389;48.710;9.392;2024-03-02T09:57:05;8.90;;;6.10;;
813;SDS011;389;48.710;9.392;2024-03-02T09:59:30;6.80;;;5.50;;
813;SDS011;389;48.710;9.392;2024-03-02T10:01:57;8.30;;;5.93;;
813;SDS011;389;48.710;9.392;2024-03-02T10:04:26;8.00;;;6.10;;
813;SDS011;389;48.710;9.392;2024-03-02T10:07:11;7.27;;;5.50;;
813;SDS011;389;48.710;9.392;2024-03-02T10:09:37;7.23;;;5.77;;
813;SDS011;389;48.710;9.392;2024-03-02T10:12:03;6.23;;;5.27;;
813;SDS011;389;48.710;9.392;2024-03-02T10:14:30;7.10;;;4.90;;
813;SDS011;389;48.710;9.392;2024-03-02T10:16:55;6.57;;;4.67;;
813;SDS011;389;48.710;9.392;2024-03-02T10:19:31;6.13;;;4.63;;
813;SDS011;389;48.710;9.392;2024-03-02T10:21:58;6.13;;;5.27;;
813;SDS011;389;48.710;9.392;2024-03-02T10:24:24;7.00;;;5.40;;
813;SDS011;389;48.710;9.392;2024-03-02T10:26:50;5.17;;;4.63;;
813;SDS011;389;48.710;9.392;2024-03-02T10:29:17;5.93;;;5.10;;
813;SDS011;389;48.710;9.392;2024-03-02T10:31:43;7.37;;;5.57;;
813;SDS011;389;48.710;9.392;2024-03-02T10:34:11;5.90;;;5.13;;
813;SDS011;389;48.710;9.392;2024-03-02T10:36:40;7.03;;;4.93;;
813;SDS011;389;48.710;9.392;2024-03-02T10:39:06;6.07;;;5.07;;
813;SDS011;389;48.710;9.392;2024-03-02T10:41:35;7.50;;;4.93;;
813;SDS011;389;48.710;9.392;2024-03-02T10:44:03;6.40;;;4.70;;
813;SDS011;389;48.710;9.392;2024-03-02T10:46:30;5.00;;;4.40;;
813;SDS011;389;48.710;9.392;2024-03-02T10:48:58;8.17;;;4.80;;
813;SDS011;389;48.710;9.392;2024-03-02T10:51:25;5.20;;;4.70;;
813;SDS011;389;48.710;9.392;2024-03-02T10:53:53;4.93;;;4.17;;
813;SDS011;389;48.710;9.392;2024-03-02T10:56:30;6.13;;;4.27;;
813;SDS011;389;48.710;9.392;2024-03-02T10:59:06;4.50;;;4.10;;
813;SDS011;389;48.710;9.392;2024-03-02T11:01:59;4.87;;;4.23;;
813;SDS011;389;48.710;9.392;2024-03-02T11:04:26;6.40;;;4.50;;
813;SDS011;389;48.710;9.392;2024-03-02T11:07:00;4.87;;;4.30;;
813;SDS011;389;48.710;9.392;2024-03-02T11:09:29;9.63;;;4.40;;
813;SDS011;389;48.710;9.392;2024-03-02T11:14:45;4.90;;;4.03;;
813;SDS011;389;48.710;9.392;2024-03-02T11:17:11;4.60;;;3.97;;
813;SDS011;389;48.710;9.392;2024-03-02T11:19:42;3.60;;;3.30;;
813;SDS011;389;48.710;9.392;2024-03-02T11:22:09;4.23;;;3.33;;
813;SDS011;389;48.710;9.392;2024-03-02T11:24:35;3.67;;;2.47;;
813;SDS011;389;48.710;9.392;2024-03-02T11:27:02;2.63;;;2.43;;
813;SDS011;389;48.710;9.392;2024-03-02T11:32:24;3.77;;;3.20;;
813;SDS011;389;48.710;9.392;2024-03-02T11:34:50;3.90;;;2.73;;
813;SDS011;389;48.710;9.392;2024-03-02T11:37:16;1.87;;;1.77;;
813;SDS011;389;48.710;9.392;2024-03-02T11:39:47;1.67;;;1.57;;
813;SDS011;389;48.710;9.392;2024-03-02T11:42:15;2.00;;;1.80;;
813;SDS011;389;48.710;9.392;2024-03-02T11:44:42;2.33;;;2.13;;
813;SDS011;389;48.710;9.392;2024-03-02T11:47:10;2.53;;;2.33;;
813;SDS011;389;48.710;9.392;2024-03-02T11:52:08;2.17;;;1.97;;
813;SDS011;389;48.710;9.392;2024-03-02T11:54:36;3.70;;;3.40;;
813;SDS011;389;48.710;9.392;2024-03-02T11:57:06;1.90;;;1.80;;
813;SDS011;389;48.710;9.392;2024-03-02T11:59:33;2.20;;;2.00;;
813;SDS011;389;48.710;9.392;2024-03-02T12:01:59;1.97;;;1.87;;
813;SDS011;389;48.710;9.392;2024-03-02T12:04:25;2.47;;;2.27;;
813;SDS011;389;48.710;9.392;2024-03-02T12:07:01;2.10;;;2.00;;
813;SDS011;389;48.710;9.392;2024-03-02T12:09:27;1.67;;;1.57;;
813;SDS011;389;48.710;9.392;2024-03-02T12:12:03;3.00;;;2.60;;
813;SDS011;389;48.710;9.392;2024-03-02T12:14:33;3.20;;;2.30;;
813;SDS011;389;48.710;9.392;2024-03-02T12:17:00;2.13;;;1.93;;
813;SDS011;389;48.710;9.392;2024-03-02T12:19:27;2.27;;;2.10;;
813;SDS011;389;48.710;9.392;2024-03-02T12:21:54;2.20;;;2.10;;
813;SDS011;389;48.710;9.392;2024-03-02T12:24:21;1.97;;;1.87;;
813;SDS011;389;48.710;9.392;2024-03-02T12:26:51;4.20;;;2.10;;
813;SDS011;389;48.710;9.392;2024-03-02T12:29:20;2.60;;;2.40;;
813;SDS011;389;48.710;9.392;2024-03-02T12:31:50;2.80;;;2.17;;
813;SDS011;389;48.710;9.392;2024-03-02T12:34:17;2.20;;;2.00;;
813;SDS011;389;48.710;9.392;2024-03-02T12:36:43;2.13;;;1.93;;
813;SDS011;389;48.710;9.392;2024-03-02T12:39:12;1.83;;;1.63;;
813;SDS011;389;48.710;9.392;2024-03-02T12:41:38;2.00;;;1.80;;
813;SDS011;389;48.710;9.392;2024-03-02T12:44:04;1.60;;;1.50;;
813;SDS011;389;48.710;9.392;2024-03-02T12:46:39;2.40;;;1.90;;
813;SDS011;389;48.710;9.392;2024-03-02T12:49:07;2.27;;;1.80;;
813;SDS011;389;48.710;9.392;2024-03-02T12:51:35;1.50;;;1.40;;
813;SDS011;389;48.710;9.392;2024-03-02T12:54:02;1.60;;;1.50;;
813;SDS011;389;48.710;9.392;2024-03-02T12:56:30;1.20;;;1.10;;
813;SDS011;389;48.710;9.392;2024-03-02T12:58:56;1.50;;;1.37;;
813;SDS011;389;48.710;9.392;2024-03-02T13:01:21;2.97;;;1.50;;
813;SDS011;389;48.710;9.392;2024-03-02T13:03:50;1.50;;;1.40;;
813;SDS011;389;48.710;9.392;2024-03-02T13:06:17;1.60;;;1.40;;
813;SDS011;389;48.710;9.392;2024-03-02T13:08:44;1.40;;;1.30;;
813;SDS011;389;48.710;9.392;2024-03-02T13:11:10;1.37;;;1.27;;
813;SDS011;389;48.710;9.392;2024-03-02T13:13:36;2.40;;;1.80;;
813;SDS011;389;48.710;9.392;2024-03-02T13:16:04;1.67;;;1.27;;
813;SDS011;389;48.710;9.392;2024-03-02T13:18:33;1.47;;;1.37;;
813;SDS011;389;48.710;9.392;2024-03-02T13:20:58;2.60;;;1.40;;
813;SDS011;389;48.710;9.392;2024-03-02T13:23:24;1.40;;;1.30;;
813;SDS011;389;48.710;9.392;2024-03-02T13:25:50;1.40;;;1.30;;
813;SDS011;389;48.710;9.392;2024-03-02T13:28:15;1.20;;;1.10;;
813;SDS011;389;48.710;9.392;2024-03-02T13:30:41;1.53;;;1.40;;
813;SDS011;389;48.710;9.392;2024-03-02T13:33:07;1.30;;;1.20;;
813;SDS011;389;48.710;9.392;2024-03-02T13:35:32;1.13;;;1.03;;
813;SDS011;389;48.710;9.392;2024-03-02T13:37:58;1.20;;;1.10;;
813;SDS011;389;48.710;9.392;2024-03-02T13:40:24;0.87;;;0.87;;
813;SDS011;389;48.710;9.392;2024-03-02T13:42:50;0.97;;;0.90;;
813;SDS011;389;48.710;9.392;2024-03-02T13:45:16;0.97;;;0.97;;
813;SDS011;389;48.710;9.392;2024-03-02T13:47:43;1.40;;;1.30;;
813;SDS011;389;48.710;9.392;2024-03-02T13:50:09;1.03;;;1.00;;
813;SDS011;389;48.710;9.392;2024-03-02T13:52:34;1.40;;;1.30;;
813;SDS011;389;48.710;9.392;2024-03-02T13:55:00;1.47;;;1.07;;
813;SDS011;389;48.710;9.392;2024-03-02T13:57:26;0.80;;;0.80;;
813;SDS011;389;48.710;9.392;2024-03-02T13:59:51;0.90;;;0.90;;
813;SDS011;389;48.710;9.392;2024-03-02T14:02:17;0.97;;;0.97;;
813;SDS011;389;48.710;9.392;2024-03-02T14:04:43;0.93;;;0.93;;
813;SDS011;389;48.710;9.392;2024-03-02T14:07:09;0.80;;;0.80;;
813;SDS011;389;48.710;9.392;2024-03-02T14:09:37;3.60;;;1.00;;
813;SDS011;389;48.710;9.392;2024-03-02T14:12:04;2.83;;;1.07;;
813;SDS011;389;48.710;9.392;2024-03-02T14:14:30;1.40;;;0.80;;
813;SDS011;389;48.710;9.392;2024-03-02T14:16:56;1.00;;;0.90;;
813;SDS011;389;48.710;9.392;2024-03-02T14:19:25;1.20;;;1.10;;
813;SDS011;389;48.710;9.392;2024-03-02T14:21:51;1.83;;;1.40;;
813;SDS011;389;48.710;9.392;2024-03-02T14:24:18;1.30;;;1.00;;
813;SDS011;389;48.710;9.392;2024-03-02T14:26:43;1.23;;;1.10;;
813;SDS011;389;48.710;9.392;2024-03-02T14:29:10;1.43;;;1.10;;
813;SDS011;389;48.710;9.392;2024-03-02T14:31:36;0.97;;;0.97;;
813;SDS011;389;48.710;9.392;2024-03-02T14:34:02;1.10;;;1.00;;
813;SDS011;389;48.710;9.392;2024-03-02T14:36:27;1.43;;;1.33;;
813;SDS011;389;48.710;9.392;2024-03-02T14:38:53;1.27;;;1.23;;
813;SDS011;389;48.710;9.392;2024-03-02T14:41:19;1.70;;;1.60;;
813;SDS011;389;48.710;9.392;2024-03-02T14:43:45;1.43;;;1.27;;
813;SDS011;389;48.710;9.392;2024-03-02T14:46:11;1.23;;;1.13;;
813;SDS011;389;48.710;9.392;2024-03-02T14:48:37;15.30;;;8.23;;
813;SDS011;389;48.710;9.392;2024-03-02T14:51:04;1.90;;;1.57;;
813;SDS011;389;48.710;9.392;2024-03-02T14:53:30;1.10;;;1.10;;
813;SDS011;389;48.710;9.392;2024-03-02T14:55:55;1.40;;;1.30;;
813;SDS011;389;48.710;9.392;2024-03-02T14:58:21;1.70;;;1.60;;
813;SDS011;389;48.710;9.392;2024-03-02T15:00:46;2.33;;;1.20;;
813;SDS011;389;48.710;9.392;2024-03-02T15:03:12;2.13;;;1.50;;
813;SDS011;389;48.710;9.392;2024-03-02T15:05:38;1.20;;;1.10;;
813;SDS011;389;48.710;9.392;2024-03-02T15:08:05;1.00;;;1.00;;
813;SDS011;389;48.710;9.392;2024-03-02T15:10:31;1.37;;;1.27;;
813;SDS011;389;48.710;9.392;2024-03-02T15:12:57;1.53;;;1.30;;
813;SDS011;389;48.710;9.392;2024-03-02T15:15:23;1.57;;;1.47;;
813;SDS011;389;48.710;9.392;2024-03-02T15:17:49;1.50;;;1.40;;
813;SDS011;389;48.710;9.392;2024-03-02T15:20:15;3.30;;;1.60;;
813;SDS011;389;48.710;9.392;2024-03-02T15:22:41;1.53;;;1.43;;
813;SDS011;389;48.710;9.392;2024-03-02T15:25:07;2.40;;;1.70;;
813;SDS011;389;48.710;9.392;2024-03-02T15:27:32;2.10;;;1.90;;
813;SDS011;389;48.710;9.392;2024-03-02T15:29:58;1.83;;;1.73;;
813;SDS011;389;48.710;9.392;2024-03-02T15:32:24;2.30;;;1.87;;
813;SDS011;389;48.710;9.392;2024-03-02T15:34:51;1.73;;;1.63;;
813;SDS011;389;48.710;9.392;2024-03-02T15:37:20;6.43;;;2.00;;
813;SDS011;389;48.710;9.392;2024-03-02T15:39:45;1.73;;;1.63;;
813;SDS011;389;48.710;9.392;2024-03-02T15:42:11;1.70;;;1.60;;
813;SDS011;389;48.710;9.392;2024-03-02T15:44:39;1.60;;;1.50;;
813;SDS011;389;48.710;9.392;2024-03-02T15:47:05;1.70;;;1.60;;
813;SDS011;389;48.710;9.392;2024-03-02T15:49:32;2.00;;;1.80;;
813;SDS011;389;48.710;9.392;2024-03-02T15:51:58;3.13;;;1.80;;
813;SDS011;389;48.710;9.392;2024-03-02T15:54:25;1.90;;;1.60;;
813;SDS011;389;48.710;9.392;2024-03-02T15:56:51;1.93;;;1.83;;
813;SDS011;389;48.710;9.392;2024-03-02T15:59:17;2.30;;;2.10;;
813;SDS011;389;48.710;9.392;2024-03-02T16:01:42;2.30;;;2.10;;
813;SDS011;389;48.710;9.392;2024-03-02T16:04:08;2.33;;;2.13;;
813;SDS011;389;48.710;9.392;2024-03-02T16:06:34;2.00;;;1.90;;
813;SDS011;389;48.710;9.392;2024-03-02T16:09:00;3.23;;;2.90;;
813;SDS011;389;48.710;9.392;2024-03-02T16:11:26;4.90;;;2.40;;
813;SDS011;389;48.710;9.392;2024-03-02T16:13:52;4.03;;;2.50;;
813;SDS011;389;48.710;9.392;2024-03-02T16:16:17;3.50;;;3.20;;
813;SDS011;389;48.710;9.392;2024-03-02T16:18:43;3.50;;;2.90;;
813;SDS011;389;48.710;9.392;2024-03-02T16:21:09;3.80;;;2.77;;
813;SDS011;389;48.710;9.392;2024-03-02T16:23:34;3.77;;;2.97;;
813;SDS011;389;48.710;9.392;2024-03-02T16:26:00;3.10;;;2.60;;
813;SDS011;389;48.710;9.392;2024-03-02T16:28:26;4.63;;;3.93;;
813;SDS011;389;48.710;9.392;2024-03-02T16:30:52;5.20;;;4.70;;
813;SDS011;389;48.710;9.392;2024-03-02T16:33:19;4.37;;;3.97;;
813;SDS011;389;48.710;9.392;2024-03-02T16:35:44;5.20;;;4.70;;
813;SDS011;389;48.710;9.392;2024-03-02T16:38:13;4.60;;;4.20;;
813;SDS011;389;48.710;9.392;2024-03-02T16:40:42;5.40;;;4.90;;
813;SDS011;389;48.710;9.392;2024-03-02T16:43:09;5.43;;;4.50;;
813;SDS011;389;48.710;9.392;2024-03-02T16:45:35;4.50;;;3.93;;
813;SDS011;389;48.710;9.392;2024-03-02T16:48:00;5.30;;;4.00;;
813;SDS011;389;48.710;9.392;2024-03-02T16:50:26;7.80;;;4.80;;
813;SDS011;389;48.710;9.392;2024-03-02T16:52:52;5.90;;;4.93;;
813;SDS011;389;48.710;9.392;2024-03-02T16:55:17;5.20;;;4.70;;
813;SDS011;389;48.710;9.392;2024-03-02T16:57:43;5.17;;;4.67;;
813;SDS011;389;48.710;9.392;2024-03-02T17:00:09;19.33;;;13.27;;
813;SDS011;389;48.710;9.392;2024-03-02T17:02:35;13.43;;;9.73;;
813;SDS011;389;48.710;9.392;2024-03-02T17:05:01;13.03;;;10.83;;
813;SDS011;389;48.710;9.392;2024-03-02T17:07:26;13.80;;;11.23;;
813;SDS011;389;48.710;9.392;2024-03-02T17:09:54;9.60;;;7.60;;
813;SDS011;389;48.710;9.392;2024-03-02T17:12:23;10.07;;;6.37;;
813;SDS011;389;48.710;9.392;2024-03-02T17:14:49;12.23;;;7.43;;
813;SDS011;389;48.710;9.392;2024-03-02T17:17:14;9.10;;;6.77;;
813;SDS011;389;48.710;9.392;2024-03-02T17:19:42;15.80;;;12.27;;
813;SDS011;389;48.710;9.392;2024-03-02T17:22:08;17.77;;;13.53;;